Time;durP1;ratioP1;P1;durP2;ratioP2;P2;SDS_P1;SDS_P2;PMS_P1;PMS_P2;Temp;Humidity;BMP_temperature;BMP_pressure;BME280_temperature;BME280_humidity;BME280_pressure;Samples;Min_cycle;Max_cycle;Signal;HPM_P1;HPM_P2
2024/01/18 09:03:32;;;;;;;;;;;;;;;4.82;100.00;97412.34;5036662;23;19935;-77
2024/01/18 09:06:00;;;;;;;;;;;;;;;4.80;100.00;97422.09;4927285;29;20343;-92
2024/01/18 09:08:25;;;;;;;;;;;;;;;4.83;100.00;97428.00;4927272;29;20289;-80
2024/01/18 09:10:52;;;;;;;;;;;;;;;4.82;100.00;97423.72;4927329;29;19919;-80
2024/01/18 09:13:17;;;;;;;;;;;;;;;4.84;100.00;97432.31;4909884;29;19923;-80
2024/01/18 09:15:42;;;;;;;;;;;;;;;4.84;100.00;97428.88;4927255;29;19914;-83
2024/01/18 09:18:08;;;;;;;;;;;;;;;4.84;100.00;97436.75;4926158;29;20066;-80
2024/01/18 09:20:33;;;;;;;;;;;;;;;4.85;100.00;97456.78;4927323;29;20002;-79
2024/01/18 09:22:58;;;;;;;;;;;;;;;4.85;100.00;97464.66;4926897;29;19966;-80
2024/01/18 09:25:24;;;;;;;;;;;;;;;4.84;100.00;97471.69;4927051;29;20297;-80
2024/01/18 09:27:49;;;;;;;;;;;;;;;4.85;100.00;97478.63;4927164;29;19961;-80
2024/01/18 09:30:14;;;;;;;;;;;;;;;4.88;100.00;97488.97;4926965;29;20037;-79
2024/01/18 09:32:40;;;;;;;;;;;;;;;4.85;100.00;97485.66;4925486;29;20345;-80
2024/01/18 09:35:08;;;;;;;;;;;;;;;4.90;100.00;97494.13;4927057;29;19926;-80
2024/01/18 09:37:34;;;;;;;;;;;;;;;4.91;100.00;97511.53;4927192;29;19926;-80
2024/01/18 09:40:00;;;;;;;;;;;;;;;4.90;100.00;97513.34;4926996;29;19958;-80
2024/01/18 09:42:28;;;;;;;;;;;;;;;4.87;100.00;97518.75;4925852;29;19981;-79
2024/01/18 09:44:57;;;;;;;;;;;;;;;4.90;100.00;97536.13;4926160;29;19923;-78
2024/01/18 09:47:22;;;;;;;;;;;;;;;4.88;100.00;97556.31;4909120;29;19965;-80
2024/01/18 09:49:48;;;;;;;;;;;;;;;4.87;100.00;97555.50;4926281;29;19958;-80
2024/01/18 09:52:14;;;;;;;;;;;;;;;4.93;100.00;97548.19;4926588;29;19926;-80
2024/01/18 09:54:39;;;;;;;;;;;;;;;4.92;100.00;97550.00;4926854;29;19923;-78
2024/01/18 09:57:06;;;;;;;;;;;;;;;4.88;100.00;97556.31;4933246;29;19919;-79
2024/01/18 09:59:35;;;;;;;;;;;;;;;4.91;100.00;97562.28;4926343;29;19923;-78
2024/01/18 10:02:01;;;;;;;;;;;;;;;4.91;100.00;97571.91;4925008;29;19923;-79
2024/01/18 10:04:27;;;;;;;;;;;;;;;4.94;100.00;97570.91;4926273;29;19930;-80
2024/01/18 10:06:53;;;;;;;;;;;;;;;4.90;100.00;97581.56;4926102;29;19919;-79
2024/01/18 10:09:19;;;;;;;;;;;;;;;4.93;100.00;97598.06;4925889;29;20280;-81
2024/01/18 10:11:45;;;;;;;;;;;;;;;4.87;100.00;97600.09;4926387;29;19934;-80
2024/01/18 10:14:11;;;;;;;;;;;;;;;4.94;100.00;97608.47;4926112;29;19926;-79
2024/01/18 10:16:37;;;;;;;;;;;;;;;4.90;100.00;97602.56;4925071;29;20664;-80
2024/01/18 10:19:04;;;;;;;;;;;;;;;4.92;100.00;97594.59;4926234;29;19919;-80
2024/01/18 10:21:31;;;;;;;;;;;;;;;4.96;100.00;97603.97;4908445;29;19927;-79
2024/01/18 10:23:56;;;;;;;;;;;;;;;4.93;100.00;97619.94;4925937;29;20022;-80
2024/01/18 10:26:22;;;;;;;;;;;;;;;4.95;100.00;97620.69;4926427;29;20013;-79
2024/01/18 10:28:47;;;;;;;;;;;;;;;4.97;100.00;97631.94;4926207;29;19915;-79
2024/01/18 10:31:13;;;;;;;;;;;;;;;4.97;100.00;97639.81;4926290;29;20321;-78
2024/01/18 10:33:39;;;;;;;;;;;;;;;4.96;100.00;97647.78;4924574;29;19920;-80
2024/01/18 10:36:04;;;;;;;;;;;;;;;4.98;100.00;97652.00;4931685;29;19915;-78
2024/01/18 10:38:30;;;;;;;;;;;;;;;5.00;100.00;97646.69;4925494;29;20009;-81
2024/01/18 10:40:59;;;;;;;;;;;;;;;4.99;100.00;97653.69;4925654;29;20326;-79
2024/01/18 10:43:28;;;;;;;;;;;;;;;5.01;100.00;97651.84;4926071;29;19934;-79
2024/01/18 10:45:53;;;;;;;;;;;;;;;4.99;100.00;97661.56;4925511;29;19926;-80
2024/01/18 10:48:18;;;;;;;;;;;;;;;4.98;100.00;97673.00;4924378;29;19919;-80
2024/01/18 10:50:45;;;;;;;;;;;;;;;5.00;100.00;97696.56;4925237;29;19934;-79
2024/01/18 10:53:10;;;;;;;;;;;;;;;4.98;100.00;97704.50;4926230;29;19926;-81
2024/01/18 10:55:36;;;;;;;;;;;;;;;4.98;100.00;97701.03;4925526;29;19919;-79
2024/01/18 10:58:02;;;;;;;;;;;;;;;5.04;100.00;97698.94;4925705;29;19919;-80
2024/01/18 11:00:30;;;;;;;;;;;;;;;5.05;100.00;97705.03;4907574;29;19923;-80
2024/01/18 11:02:56;;;;;;;;;;;;;;;5.02;100.00;97720.94;4924233;29;19927;-78
2024/01/18 11:07:57;;;;;;;;;;;;;;;5.05;100.00;97726.03;4996189;23;20302;-82
2024/01/18 11:10:23;;;;;;;;;;;;;;;5.01;100.00;97714.84;4898942;29;19923;-82
2024/01/18 11:12:49;;;;;;;;;;;;;;;5.05;100.00;97724.22;4899013;29;19919;-82
2024/01/18 11:15:15;;;;;;;;;;;;;;;5.09;100.00;97730.19;4915461;29;20382;-81
2024/01/18 11:17:45;;;;;;;;;;;;;;;5.03;100.00;97748.91;4897577;29;19919;-80
2024/01/18 11:20:10;;;;;;;;;;;;;;;5.05;100.00;97758.38;4918497;29;20382;-79
2024/01/18 11:22:35;;;;;;;;;;;;;;;5.06;100.00;97760.06;4922210;29;19923;-80
2024/01/18 11:25:04;;;;;;;;;;;;;;;5.07;100.00;97758.28;4922026;29;19926;-81
2024/01/18 11:27:34;;;;;;;;;;;;;;;5.08;100.00;97773.13;4922157;29;19922;-79
2024/01/18 11:29:59;;;;;;;;;;;;;;;5.08;100.00;97773.13;4922083;29;19919;-80
2024/01/18 11:32:24;;;;;;;;;;;;;;;5.07;100.00;97780.16;4920852;29;19925;-81
2024/01/18 11:34:54;;;;;;;;;;;;;;;5.12;100.00;97784.28;4922000;29;19971;-80
2024/01/18 11:37:23;;;;;;;;;;;;;;;5.09;100.00;97790.56;4921586;29;19926;-81
2024/01/18 11:39:52;;;;;;;;;;;;;;;5.08;100.00;97797.59;4904621;29;20006;-81
2024/01/18 11:42:18;;;;;;;;;;;;;;;5.09;100.00;97811.56;4921437;29;19915;-81
2024/01/18 11:44:58;;;;;;;;;;;;;;;5.12;100.00;97811.38;4921870;29;20010;-81
2024/01/18 11:47:24;;;;;;;;;;;;;;;5.09;100.00;97817.66;4920581;29;20012;-80
2024/01/18 11:49:49;;;;;;;;;;;;;;;5.12;100.00;97829.78;4921902;29;20022;-81
2024/01/18 11:52:15;;;;;;;;;;;;;;;5.12;100.00;97834.19;4921885;29;19922;-80
2024/01/18 11:54:42;;;;;;;;;;;;;;;5.11;100.00;97840.38;4921885;29;20290;-79
2024/01/18 11:57:12;;;;;;;;;;;;;;;5.14;100.00;97848.94;4921043;29;19919;-81
2024/01/18 11:59:44;;;;;;;;;;;;;;;5.18;100.00;97862.75;4921154;29;19923;-79
2024/01/18 12:02:10;;;;;;;;;;;;;;;5.12;100.00;97861.28;4919853;29;20379;-81
2024/01/18 12:04:35;;;;;;;;;;;;;;;5.14;100.00;97877.81;4921672;29;19926;-80
2024/01/18 12:07:00;;;;;;;;;;;;;;;5.15;100.00;97884.75;4921518;29;19927;-81
2024/01/18 12:09:27;;;;;;;;;;;;;;;5.15;100.00;97890.00;4921798;29;19923;-80
2024/01/18 12:11:55;;;;;;;;;;;;;;;5.17;100.00;97889.91;4921736;29;19919;-81
2024/01/18 12:14:20;;;;;;;;;;;;;;;5.23;100.00;97902.75;4921103;29;19923;-80
2024/01/18 12:16:46;;;;;;;;;;;;;;;5.17;100.00;97913.56;4920295;29;20367;-80
2024/01/18 12:19:11;;;;;;;;;;;;;;;5.18;100.00;97916.09;4921559;29;20330;-80
2024/01/18 12:21:36;;;;;;;;;;;;;;;5.19;100.00;97915.19;4922019;29;19931;-90
2024/01/18 12:24:02;;;;;;;;;;;;;;;5.18;100.00;97918.72;4921566;29;19934;-81
2024/01/18 12:26:27;;;;;;;;;;;;;;;5.20;100.00;97934.41;4904413;29;19985;-81
2024/01/18 12:28:53;;;;;;;;;;;;;;;5.22;100.00;97928.16;4921506;29;20379;-80
2024/01/18 12:31:20;;;;;;;;;;;;;;;5.24;100.00;97942.06;4919271;29;20009;-81
2024/01/18 12:33:45;;;;;;;;;;;;;;;5.24;100.00;97944.69;4918215;29;20314;-80
2024/01/18 12:36:10;;;;;;;;;;;;;;;5.28;100.00;97938.34;4918562;29;19999;-80
2024/01/18 12:38:36;;;;;;;;;;;;;;;5.23;100.00;97953.50;4918459;29;19926;-81
2024/01/18 12:41:01;;;;;;;;;;;;;;;5.25;100.00;97958.69;4918424;29;20379;-80
2024/01/18 12:43:26;;;;;;;;;;;;;;;5.31;100.00;97963.59;4918348;29;19922;-84
2024/01/18 12:45:52;;;;;;;;;;;;;;;5.30;100.00;97961.03;4901441;29;19927;-80
2024/01/18 12:48:18;;;;;;;;;;;;;;;5.25;100.00;97972.66;4916985;29;19915;-81
2024/01/18 12:50:43;;;;;;;;;;;;;;;5.26;100.00;97976.97;4918289;29;19931;-81
2024/01/18 12:53:09;;;;;;;;;;;;;;;5.27;100.00;97978.66;4918237;29;20402;-81
2024/01/18 12:55:35;;;;;;;;;;;;;;;5.22;100.00;97991.19;4918237;29;19919;-80
2024/01/18 12:58:02;;;;;;;;;;;;;;;5.27;100.00;97990.97;4918144;29;19926;-80
2024/01/18 13:00:29;;;;;;;;;;;;;;;5.31;100.00;98000.38;4918000;29;20379;-85
2024/01/18 13:02:55;;;;;;;;;;;;;;;5.30;100.00;98013.56;4916969;29;19919;-84
2024/01/18 13:05:20;;;;;;;;;;;;;;;5.34;100.00;98023.00;4918139;29;19926;-82
2024/01/18 13:07:45;;;;;;;;;;;;;;;5.35;100.00;98022.94;4918025;29;19946;-82
2024/01/18 13:10:12;;;;;;;;;;;;;;;5.28;100.00;98032.03;4917996;29;19919;-81
2024/01/18 13:12:37;;;;;;;;;;;;;;;5.27;100.00;98033.81;4917699;29;19927;-82
2024/01/18 13:15:06;;;;;;;;;;;;;;;5.27;100.00;98036.44;4917010;29;20017;-82
2024/01/18 13:17:31;;;;;;;;;;;;;;;5.26;100.00;98044.41;4916529;29;19927;-79
2024/01/18 13:19:57;;;;;;;;;;;;;;;5.31;100.00;98046.78;4900828;29;19919;-82
2024/01/18 13:22:22;;;;;;;;;;;;;;;5.32;100.00;98056.38;4917685;29;20371;-80
2024/01/18 13:24:47;;;;;;;;;;;;;;;5.27;100.00;98062.69;4917641;29;20424;-82
2024/01/18 13:27:12;;;;;;;;;;;;;;;5.28;100.00;98069.66;4900577;29;19923;-81
2024/01/18 13:29:38;;;;;;;;;;;;;;;5.32;100.00;98072.16;4917863;29;20396;-82
2024/01/18 13:32:03;;;;;;;;;;;;;;;5.34;100.00;98080.78;4916277;29;20010;-83
2024/01/18 13:34:30;;;;;;;;;;;;;;;5.32;100.00;98094.00;4917509;29;19938;-79
2024/01/18 13:36:56;;;;;;;;;;;;;;;5.32;100.00;98099.25;4917560;29;20302;-80
2024/01/18 13:39:21;;;;;;;;;;;;;;;5.34;100.00;98109.69;4917301;29;19983;-81
2024/01/18 13:41:47;;;;;;;;;;;;;;;5.32;100.00;98111.53;4917355;29;19938;-80
2024/01/18 13:44:13;;;;;;;;;;;;;;;5.35;100.00;98114.03;4916017;29;19923;-79
2024/01/18 13:46:38;;;;;;;;;;;;;;;5.33;100.00;98126.34;4916076;29;19933;-79
2024/01/18 13:49:03;;;;;;;;;;;;;;;5.37;100.00;98133.19;4917202;29;19931;-79
2024/01/18 13:51:30;;;;;;;;;;;;;;;5.35;100.00;98140.28;4917485;29;19919;-80
2024/01/18 13:53:55;;;;;;;;;;;;;;;5.36;100.00;98153.34;4917211;29;19974;-80
2024/01/18 13:56:22;;;;;;;;;;;;;;;5.35;100.00;98150.78;4917055;29;19927;-86
2024/01/18 13:58:47;;;;;;;;;;;;;;;5.40;100.00;98165.41;4899338;29;19919;-83
2024/01/18 14:01:12;;;;;;;;;;;;;;;5.38;100.00;98169.88;4916858;29;19926;-79
2024/01/18 14:03:41;;;;;;;;;;;;;;;5.35;100.00;98174.44;4899190;29;19923;-80
2024/01/18 14:06:07;;;;;;;;;;;;;;;5.35;100.00;98179.69;4915969;29;19923;-80
2024/01/18 14:08:32;;;;;;;;;;;;;;;5.37;100.00;98183.09;4916954;29;19931;-79
2024/01/18 14:10:57;;;;;;;;;;;;;;;5.35;100.00;98190.19;4899937;29;20292;-80
2024/01/18 14:13:22;;;;;;;;;;;;;;;5.37;100.00;98198.84;4916653;29;19954;-80
2024/01/18 14:15:51;;;;;;;;;;;;;;;5.41;100.00;98208.28;4917162;29;19927;-80
2024/01/18 14:18:16;;;;;;;;;;;;;;;5.38;100.00;98208.44;4883186;29;20423;-79
2024/01/18 14:20:41;;;;;;;;;;;;;;;5.37;100.00;98220.69;4899879;29;19966;-79
2024/01/18 14:23:07;;;;;;;;;;;;;;;5.40;100.00;98227.59;4916636;29;20290;-78
2024/01/18 14:25:34;;;;;;;;;;;;;;;5.40;100.00;98220.56;4916551;29;19923;-78
2024/01/18 14:27:59;;;;;;;;;;;;;;;5.37;100.00;98230.38;4915890;29;20397;-79
2024/01/18 14:30:24;;;;;;;;;;;;;;;5.40;100.00;98246.81;4916467;29;19915;-79
2024/01/18 14:32:49;;;;;;;;;;;;;;;5.48;100.00;98258.78;4915365;29;19929;-82
2024/01/18 14:35:15;;;;;;;;;;;;;;;5.45;100.00;98254.50;4916310;29;19915;-79
2024/01/18 14:37:40;;;;;;;;;;;;;;;5.42;100.00;98257.25;4916357;29;19933;-80
2024/01/18 14:40:10;;;;;;;;;;;;;;;5.43;100.00;98266.84;4897827;29;19929;-79
2024/01/18 14:42:36;;;;;;;;;;;;;;;5.44;100.00;98260.66;4914405;29;20467;-79
2024/01/18 14:45:01;;;;;;;;;;;;;;;5.46;100.00;98282.47;4916285;29;19988;-79
2024/01/18 14:47:26;;;;;;;;;;;;;;;5.45;100.00;98286.03;4895711;29;20405;-81
2024/01/18 14:49:52;;;;;;;;;;;;;;;5.44;100.00;98292.19;4915090;29;20434;-79
2024/01/18 14:52:19;;;;;;;;;;;;;;;5.45;100.00;98296.53;4913662;29;19927;-79
2024/01/18 14:54:46;;;;;;;;;;;;;;;5.44;100.00;98307.94;4912978;29;19918;-79
2024/01/18 14:57:12;;;;;;;;;;;;;;;5.43;100.00;98319.41;4909481;29;20014;-79
2024/01/18 14:59:38;;;;;;;;;;;;;;;5.49;100.00;98329.63;4899070;29;20006;-80
2024/01/18 15:02:04;;;;;;;;;;;;;;;5.50;100.00;98335.72;4914767;29;20302;-80
2024/01/18 15:04:30;;;;;;;;;;;;;;;5.42;100.00;98343.97;4914673;29;19919;-80
2024/01/18 15:06:55;;;;;;;;;;;;;;;5.48;100.00;98350.72;4915879;29;19923;-78
2024/01/18 15:09:20;;;;;;;;;;;;;;;5.48;100.00;98354.19;4915975;29;20008;-78
2024/01/18 15:11:45;;;;;;;;;;;;;;;5.45;100.00;98351.69;4916037;29;20119;-79
2024/01/18 15:14:11;;;;;;;;;;;;;;;5.49;100.00;98360.28;4915966;29;19919;-77
2024/01/18 15:16:36;;;;;;;;;;;;;;;5.49;100.00;98371.66;4914733;29;19970;-80
2024/01/18 15:19:01;;;;;;;;;;;;;;;5.50;100.00;98383.88;4915882;29;19994;-81
2024/01/18 15:21:26;;;;;;;;;;;;;;;5.49;100.00;98386.56;4915806;29;19923;-87
2024/01/18 15:23:52;;;;;;;;;;;;;;;5.51;100.00;98390.84;4915012;29;20062;-90
2024/01/18 15:26:18;;;;;;;;;;;;;;;5.51;100.00;98400.50;4898557;29;20017;-81
2024/01/18 15:28:43;;;;;;;;;;;;;;;5.46;100.00;98411.22;4915107;29;19920;-81
2024/01/18 15:31:08;;;;;;;;;;;;;;;5.54;100.00;98411.72;4898695;29;19926;-81
2024/01/18 15:33:34;;;;;;;;;;;;;;;5.49;100.00;98418.97;4914515;29;19923;-81
2024/01/18 15:35:59;;;;;;;;;;;;;;;5.51;100.00;98417.13;4915918;29;20014;-81
2024/01/18 15:38:24;;;;;;;;;;;;;;;5.48;100.00;98426.91;4915492;29;19979;-81
2024/01/18 15:40:49;;;;;;;;;;;;;;;5.49;100.00;98436.47;4915544;29;19967;-80
2024/01/18 15:43:15;;;;;;;;;;;;;;;5.52;100.00;98442.47;4915772;29;19923;-81
2024/01/18 15:45:40;;;;;;;;;;;;;;;5.52;100.00;98453.00;4915556;29;20183;-81
2024/01/18 15:48:09;;;;;;;;;;;;;;;5.49;100.00;98460.13;4914413;29;19927;-81
2024/01/18 15:50:34;;;;;;;;;;;;;;;5.52;100.00;98465.25;4914725;29;19974;-80
2024/01/18 15:52:59;;;;;;;;;;;;;;;5.51;100.00;98474.06;4915584;29;19923;-82
2024/01/18 15:55:25;;;;;;;;;;;;;;;5.50;100.00;98486.34;4915340;29;19919;-81
2024/01/18 15:57:50;;;;;;;;;;;;;;;5.52;100.00;98486.28;4898538;29;19975;-80
2024/01/18 16:00:16;;;;;;;;;;;;;;;5.55;100.00;98497.53;4898461;29;20009;-80
2024/01/18 16:02:41;;;;;;;;;;;;;;;5.56;100.00;98509.72;4914284;29;19973;-83
2024/01/18 16:05:07;;;;;;;;;;;;;;;5.53;100.00;98515.09;4915427;29;20009;-79
2024/01/18 16:07:32;;;;;;;;;;;;;;;5.52;100.00;98531.81;4916981;29;19966;-78
2024/01/18 16:09:57;;;;;;;;;;;;;;;5.54;100.00;98537.00;4918950;29;19969;-79
2024/01/18 16:12:22;;;;;;;;;;;;;;;5.55;100.00;98539.56;4918670;29;19926;-79
2024/01/18 16:14:48;;;;;;;;;;;;;;;5.54;100.00;98548.38;4918979;29;19923;-80
2024/01/18 16:17:13;;;;;;;;;;;;;;;5.58;100.00;98555.19;4917419;29;19919;-80
2024/01/18 16:19:41;;;;;;;;;;;;;;;5.58;100.00;98570.09;4918722;29;20382;-88
2024/01/18 16:22:07;;;;;;;;;;;;;;;5.61;100.00;98569.97;4918077;29;20010;-86
2024/01/18 16:24:32;;;;;;;;;;;;;;;5.58;100.00;98580.59;4918015;29;20034;-90
2024/01/18 16:26:58;;;;;;;;;;;;;;;5.61;100.00;98588.38;4899631;29;19998;-80
2024/01/18 16:29:25;;;;;;;;;;;;;;;5.60;100.00;98595.41;4901466;29;19919;-84
2024/01/18 16:31:50;;;;;;;;;;;;;;;5.60;100.00;98605.03;4917664;29;19974;-85
2024/01/18 16:34:16;;;;;;;;;;;;;;;5.60;100.00;98605.03;4918866;29;19954;-81
2024/01/18 16:36:42;;;;;;;;;;;;;;;5.61;100.00;98612.88;4917365;29;19923;-78
2024/01/18 16:39:07;;;;;;;;;;;;;;;5.62;100.00;98625.09;4918175;29;19924;-80
2024/01/18 16:41:32;;;;;;;;;;;;;;;5.61;100.00;98626.00;4918185;29;19927;-85
2024/01/18 16:43:58;;;;;;;;;;;;;;;5.59;100.00;98630.47;4917425;29;19923;-80
2024/01/18 16:46:24;;;;;;;;;;;;;;;5.63;100.00;98637.34;4917659;29;20371;-78
2024/01/18 16:48:49;;;;;;;;;;;;;;;5.68;100.00;98645.03;4916911;29;19946;-87
2024/01/18 16:51:14;;;;;;;;;;;;;;;5.60;100.00;98657.59;4900789;29;19923;-76
2024/01/18 16:53:40;;;;;;;;;;;;;;;5.60;100.00;98658.47;4917395;29;20512;-79
2024/01/18 16:56:05;;;;;;;;;;;;;;;5.62;100.00;98658.41;4918151;29;19919;-84
2024/01/18 16:58:31;;;;;;;;;;;;;;;5.63;100.00;98663.63;4900802;29;20395;-79
2024/01/18 17:00:57;;;;;;;;;;;;;;;5.60;100.00;98666.38;4917897;29;19974;-80
2024/01/18 17:03:22;;;;;;;;;;;;;;;5.64;100.00;98657.41;4916658;29;19973;-80
2024/01/18 17:05:47;;;;;;;;;;;;;;;5.69;100.00;98672.16;4917219;29;20298;-77
2024/01/18 17:08:12;;;;;;;;;;;;;;;5.63;100.00;98682.00;4917458;29;19984;-85
2024/01/18 17:10:38;;;;;;;;;;;;;;;5.64;100.00;98686.31;4900818;29;19988;-77
2024/01/18 17:13:03;;;;;;;;;;;;;;;5.68;100.00;98691.47;4913592;29;19927;-80
2024/01/18 17:15:30;;;;;;;;;;;;;;;5.69;100.00;98701.06;4917136;29;19922;-84
2024/01/18 17:17:56;;;;;;;;;;;;;;;5.69;100.00;98706.31;4898990;29;20375;-79
2024/01/18 17:20:21;;;;;;;;;;;;;;;5.66;100.00;98707.28;4917495;29;19978;-79
2024/01/18 17:22:46;;;;;;;;;;;;;;;5.68;100.00;98713.38;4917338;29;19923;-78
2024/01/18 17:25:11;;;;;;;;;;;;;;;5.68;100.00;98718.63;4916782;29;20294;-78
2024/01/18 17:27:36;;;;;;;;;;;;;;;5.71;100.00;98717.63;4917578;29;20351;-78
2024/01/18 17:30:02;;;;;;;;;;;;;;;5.68;100.00;98733.50;4900686;29;19923;-79
2024/01/18 17:32:27;;;;;;;;;;;;;;;5.68;100.00;98729.13;4899029;29;19925;-79
2024/01/18 17:34:55;;;;;;;;;;;;;;;5.70;100.00;98742.22;4917329;29;19978;-78
2024/01/18 17:37:21;;;;;;;;;;;;;;;5.70;100.00;98744.84;4916336;29;19926;-79
2024/01/18 17:39:46;;;;;;;;;;;;;;;5.71;100.00;98750.03;4900299;29;19923;-79
2024/01/18 17:42:11;;;;;;;;;;;;;;;5.73;100.00;98752.63;4917435;29;19971;-78
2024/01/18 17:44:36;;;;;;;;;;;;;;;5.72;100.00;98758.78;4917286;29;20498;-79
2024/01/18 17:47:02;;;;;;;;;;;;;;;5.73;100.00;98776.28;4898820;29;19923;-79
2024/01/18 17:49:28;;;;;;;;;;;;;;;5.73;100.00;98763.13;4916878;29;19923;-78
2024/01/18 17:51:54;;;;;;;;;;;;;;;5.75;100.00;98772.66;4916103;29;19926;-78
2024/01/18 17:54:19;;;;;;;;;;;;;;;5.75;100.00;98766.53;4916931;29;19923;-79
2024/01/18 17:56:45;;;;;;;;;;;;;;;5.73;100.00;98778.91;4899817;29;19919;-82
2024/01/18 17:59:12;;;;;;;;;;;;;;;5.73;100.00;98785.00;4916559;29;19930;-78
2024/01/18 18:01:37;;;;;;;;;;;;;;;5.76;100.00;98789.25;4898538;29;20298;-79
2024/01/18 18:04:04;;;;;;;;;;;;;;;5.77;100.00;98791.00;4917048;29;19915;-80
2024/01/18 18:06:29;;;;;;;;;;;;;;;5.77;100.00;98796.25;4916398;29;19945;-83
2024/01/18 18:08:54;;;;;;;;;;;;;;;5.74;100.00;98802.47;4915543;29;20371;-80
2024/01/18 18:11:19;;;;;;;;;;;;;;;5.77;100.00;98804.13;4916945;29;19919;-79
2024/01/18 18:13:45;;;;;;;;;;;;;;;5.78;100.00;98803.22;4916353;29;19923;-80
2024/01/18 18:16:10;;;;;;;;;;;;;;;5.78;100.00;98813.75;4916342;29;20026;-80
2024/01/18 18:18:35;;;;;;;;;;;;;;;5.77;100.00;98815.50;4914763;29;19923;-80
2024/01/18 18:21:01;;;;;;;;;;;;;;;5.77;100.00;98817.28;4916544;29;19923;-80
2024/01/18 18:23:26;;;;;;;;;;;;;;;5.78;100.00;98825.09;4916399;29;20282;-79
2024/01/18 18:25:51;;;;;;;;;;;;;;;5.80;100.00;98832.94;4915399;29;19931;-79
2024/01/18 18:28:17;;;;;;;;;;;;;;;5.80;100.00;98846.06;4916333;29;19927;-79
2024/01/18 18:30:44;;;;;;;;;;;;;;;5.80;100.00;98846.06;4898228;29;19987;-79
2024/01/18 18:33:09;;;;;;;;;;;;;;;5.80;100.00;98849.56;4914814;29;19956;-80
2024/01/18 18:35:36;;;;;;;;;;;;;;;5.80;100.00;98851.34;4916434;29;19915;-79
2024/01/18 18:38:01;;;;;;;;;;;;;;;5.81;100.00;98853.06;4899218;29;20014;-80
2024/01/18 18:40:29;;;;;;;;;;;;;;;5.82;100.00;98854.75;4913714;29;20022;-79
2024/01/18 18:42:54;;;;;;;;;;;;;;;5.80;100.00;98862.69;4914674;29;19919;-81
2024/01/18 18:45:19;;;;;;;;;;;;;;;5.82;100.00;98862.63;4898838;29;19927;-80
2024/01/18 18:47:45;;;;;;;;;;;;;;;5.82;100.00;98862.63;4915017;29;19916;-79
2024/01/18 18:50:12;;;;;;;;;;;;;;;5.80;100.00;98870.59;4916280;29;19946;-80
2024/01/18 18:52:37;;;;;;;;;;;;;;;5.85;100.00;98870.41;4899094;29;19923;-80
2024/01/18 18:55:03;;;;;;;;;;;;;;;5.84;100.00;98876.59;4916194;29;19926;-80
2024/01/18 18:57:28;;;;;;;;;;;;;;;5.82;100.00;98884.53;4915777;29;20002;-79
2024/01/18 18:59:53;;;;;;;;;;;;;;;5.85;100.00;98888.81;4916148;29;19929;-80
2024/01/18 19:02:18;;;;;;;;;;;;;;;5.87;100.00;98892.25;4914280;29;20009;-80
2024/01/18 19:04:44;;;;;;;;;;;;;;;5.86;100.00;98895.81;4914103;29;19962;-78
2024/01/18 19:07:09;;;;;;;;;;;;;;;5.87;100.00;98901.91;4915948;29;19923;-79
2024/01/18 19:09:34;;;;;;;;;;;;;;;5.81;100.00;98901.22;4915000;29;19958;-80
2024/01/18 19:11:59;;;;;;;;;;;;;;;5.90;100.00;98913.16;4914569;29;19923;-78
2024/01/18 19:14:25;;;;;;;;;;;;;;;5.87;100.00;98904.53;4914867;29;19927;-78
2024/01/18 19:16:50;;;;;;;;;;;;;;;5.88;100.00;98917.63;4896695;29;19927;-79
2024/01/18 19:19:16;;;;;;;;;;;;;;;5.87;100.00;98913.31;4914183;29;19942;-79
2024/01/18 19:21:41;;;;;;;;;;;;;;;5.87;100.00;98928.19;4914606;29;19934;-78
2024/01/18 19:24:06;;;;;;;;;;;;;;;5.89;100.00;98937.75;4914420;29;20267;-82
2024/01/18 19:26:31;;;;;;;;;;;;;;;5.87;100.00;98947.47;4898017;29;20011;-79
2024/01/18 19:28:57;;;;;;;;;;;;;;;5.86;100.00;98955.41;4914039;29;20360;-79
2024/01/18 19:31:22;;;;;;;;;;;;;;;5.88;100.00;98959.69;4914486;29;20403;-78
2024/01/18 19:33:47;;;;;;;;;;;;;;;5.88;100.00;98958.84;4913593;29;20005;-79
2024/01/18 19:36:13;;;;;;;;;;;;;;;5.89;100.00;98969.31;4914410;29;19990;-79
2024/01/18 19:38:38;;;;;;;;;;;;;;;5.92;100.00;98982.34;4897340;29;19966;-78
2024/01/18 19:41:04;;;;;;;;;;;;;;;5.92;100.00;98984.97;4898323;29;19926;-78
2024/01/18 19:43:29;;;;;;;;;;;;;;;5.88;100.00;98985.97;4900844;29;20302;-79
2024/01/18 19:45:58;;;;;;;;;;;;;;;5.90;100.00;98993.81;4918305;29;20013;-78
2024/01/18 19:48:23;;;;;;;;;;;;;;;5.92;100.00;98994.59;4916656;29;19979;-79
2024/01/18 19:50:48;;;;;;;;;;;;;;;5.92;100.00;99007.75;4918304;29;19927;-79
2024/01/18 19:53:14;;;;;;;;;;;;;;;5.91;100.00;99008.69;4918174;29;19966;-79
2024/01/18 19:55:39;;;;;;;;;;;;;;;5.91;100.00;99014.81;4918086;29;20476;-79
2024/01/18 19:58:04;;;;;;;;;;;;;;;5.93;100.00;99017.38;4918133;29;19931;-78
2024/01/18 20:00:30;;;;;;;;;;;;;;;5.90;100.00;99028.00;4917926;29;19923;-79
2024/01/18 20:02:55;;;;;;;;;;;;;;;5.89;100.00;99037.66;4916530;29;20026;-79
2024/01/18 20:05:21;;;;;;;;;;;;;;;5.91;100.00;99046.34;4917102;29;19930;-80
2024/01/18 20:07:47;;;;;;;;;;;;;;;5.92;100.00;99052.47;4916778;29;19978;-80
2024/01/18 20:10:12;;;;;;;;;;;;;;;5.91;100.00;99050.75;4917265;29;19931;-78
2024/01/18 20:12:37;;;;;;;;;;;;;;;5.94;100.00;99062.03;4917642;29;19926;-81
2024/01/18 20:15:03;;;;;;;;;;;;;;;5.90;100.00;99063.03;4917943;29;19923;-80
2024/01/18 20:17:28;;;;;;;;;;;;;;;5.90;100.00;99065.66;4916489;29;19927;-80
2024/01/18 20:19:53;;;;;;;;;;;;;;;5.92;100.00;99069.13;4918015;29;20308;-82
2024/01/18 20:22:19;;;;;;;;;;;;;;;5.92;100.00;99078.75;4917222;29;19927;-80
2024/01/18 20:24:44;;;;;;;;;;;;;;;5.90;100.00;99086.69;4917654;29;19930;-80
2024/01/18 20:27:10;;;;;;;;;;;;;;;5.92;100.00;99089.28;4917620;29;20400;-81
2024/01/18 20:29:35;;;;;;;;;;;;;;;5.94;100.00;99098.00;4916290;29;19927;-80
2024/01/18 20:32:01;;;;;;;;;;;;;;;5.94;100.00;99090.94;4898981;29;19970;-77
2024/01/18 20:34:26;;;;;;;;;;;;;;;5.95;100.00;99100.56;4917568;29;20052;-79
2024/01/18 20:36:53;;;;;;;;;;;;;;;7.45;100.00;99098.44;4917010;29;20138;-79
2024/01/18 20:39:18;;;;;;;;;;;;;;;6.35;100.00;99101.81;4899539;29;19926;-80
2024/01/18 20:41:44;;;;;;;;;;;;;;;6.18;100.00;99110.28;4916686;29;19930;-79
2024/01/18 20:44:09;;;;;;;;;;;;;;;6.12;100.00;99112.28;4917244;29;19919;-81
2024/01/18 20:46:37;;;;;;;;;;;;;;;6.12;100.00;99122.81;4915948;29;19923;-80
2024/01/18 20:49:02;;;;;;;;;;;;;;;6.07;100.00;99125.59;4917155;29;19929;-81
2024/01/18 20:51:27;;;;;;;;;;;;;;;6.06;100.00;99123.03;4899494;29;19930;-80
2024/01/18 20:53:53;;;;;;;;;;;;;;;6.03;100.00;99128.38;4915841;29;19923;-81
2024/01/18 20:56:18;;;;;;;;;;;;;;;6.01;100.00;99125.81;4917229;29;20074;-80
2024/01/18 20:58:43;;;;;;;;;;;;;;;6.06;100.00;99134.38;4917033;29;19973;-80
2024/01/18 21:01:09;;;;;;;;;;;;;;;6.07;100.00;99136.13;4900152;29;20042;-81
2024/01/18 21:03:34;;;;;;;;;;;;;;;6.03;100.00;99145.06;4916121;29;20391;-81
2024/01/18 21:05:59;;;;;;;;;;;;;;;6.05;100.00;99147.59;4916900;29;19923;-80
2024/01/18 21:08:24;;;;;;;;;;;;;;;6.07;100.00;99151.91;4916369;29;19923;-80
2024/01/18 21:10:50;;;;;;;;;;;;;;;6.03;100.00;99149.44;4916434;29;19927;-82
2024/01/18 21:13:15;;;;;;;;;;;;;;;6.07;100.00;99151.06;4916563;29;19987;-81
2024/01/18 21:15:40;;;;;;;;;;;;;;;6.08;100.00;99152.75;4917047;29;19923;-80
2024/01/18 21:18:05;;;;;;;;;;;;;;;6.11;100.00;99155.28;4915354;29;19963;-82
2024/01/18 21:20:31;;;;;;;;;;;;;;;6.05;100.00;99168.63;4916036;29;19927;-80
2024/01/18 21:22:56;;;;;;;;;;;;;;;6.07;100.00;99175.56;4916371;29;20399;-79
2024/01/18 21:25:21;;;;;;;;;;;;;;;6.05;100.00;99166.00;4916379;29;19931;-80
2024/01/18 21:27:47;;;;;;;;;;;;;;;6.08;100.00;99173.78;4916753;29;20306;-80
2024/01/18 21:30:12;;;;;;;;;;;;;;;6.06;100.00;99175.63;4915994;29;19951;-80
2024/01/18 21:32:37;;;;;;;;;;;;;;;6.05;100.00;99189.69;4915057;29;19926;-81
2024/01/18 21:35:03;;;;;;;;;;;;;;;6.04;100.00;99193.25;4916372;29;19926;-80
2024/01/18 21:37:28;;;;;;;;;;;;;;;6.07;100.00;99193.97;4916010;29;19923;-80
2024/01/18 21:39:54;;;;;;;;;;;;;;;6.04;100.00;99207.25;4899243;29;19943;-80
2024/01/18 21:42:19;;;;;;;;;;;;;;;6.08;100.00;99211.50;4916198;29;19986;-80
2024/01/18 21:44:44;;;;;;;;;;;;;;;6.06;100.00;99217.72;4916463;29;20006;-80